Time;durP1;ratioP1;P1;durP2;ratioP2;P2;SDS_P1;SDS_P2;PMS_P1;PMS_P2;Temp;Humidity;BMP_temperature;BMP_pressure;BME280_temperature;BME280_humidity;BME280_pressure;Samples;Min_cycle;Max_cycle;Signal;HPM_P1;HPM_P2
2022/04/18 00:01:47;;;;;;;12.65;9.02;;;11.80;40.10;;;;;;5120421;27;20054;-70
2022/04/18 00:04:13;;;;;;;11.32;8.40;;;11.70;40.20;;;;;;5133266;27;20028;-72
2022/04/18 00:06:38;;;;;;;12.00;9.02;;;11.70;40.40;;;;;;5112998;28;20035;-72
2022/04/18 00:09:04;;;;;;;12.30;9.27;;;11.70;40.40;;;;;;5114634;28;20345;-72
2022/04/18 00:11:30;;;;;;;13.90;9.88;;;11.70;40.50;;;;;;5112560;27;20023;-72
2022/04/18 00:13:55;;;;;;;12.70;9.50;;;11.70;40.70;;;;;;5111523;27;20031;-70
2022/04/18 00:16:21;;;;;;;13.70;10.18;;;11.60;40.70;;;;;;5115148;27;20512;-71
2022/04/18 00:18:46;;;;;;;15.50;10.57;;;11.60;40.90;;;;;;5102944;28;20033;-71
2022/04/18 00:21:12;;;;;;;12.88;9.57;;;11.60;41.00;;;;;;5098989;28;20028;-71
2022/04/18 00:23:37;;;;;;;12.63;8.98;;;11.60;41.20;;;;;;5107811;28;20036;-71
2022/04/18 00:26:03;;;;;;;14.73;10.25;;;11.50;41.20;;;;;;5108221;27;20023;-71
2022/04/18 00:28:28;;;;;;;11.10;8.30;;;11.50;41.50;;;;;;5126228;27;20012;-70
2022/04/18 00:30:54;;;;;;;14.82;9.77;;;11.50;41.50;;;;;;5115950;28;20016;-71
2022/04/18 00:33:20;;;;;;;13.40;9.00;;;11.50;41.50;;;;;;5092829;28;20007;-72
2022/04/18 00:35:45;;;;;;;11.93;8.73;;;11.50;41.50;;;;;;5122439;28;20073;-72
2022/04/18 00:38:11;;;;;;;12.43;9.80;;;11.50;41.50;;;;;;5097860;27;20034;-72
2022/04/18 00:40:36;;;;;;;13.57;9.48;;;11.40;41.70;;;;;;5107789;27;20023;-73
2022/04/18 00:43:06;;;;;;;13.55;9.23;;;11.40;41.80;;;;;;5107579;27;20035;-73
2022/04/18 00:45:32;;;;;;;12.57;9.30;;;11.40;41.80;;;;;;5108002;28;20020;-74
2022/04/18 00:47:57;;;;;;;14.48;11.48;;;11.40;41.90;;;;;;5086385;28;20051;-74
2022/04/18 00:50:25;;;;;;;12.25;9.13;;;11.30;42.20;;;;;;5105853;28;20482;-72
2022/04/18 00:52:53;;;;;;;12.27;9.63;;;11.30;42.20;;;;;;5109848;28;20032;-74
2022/04/18 00:55:20;;;;;;;16.05;10.35;;;11.20;42.30;;;;;;5090675;28;20087;-72
2022/04/18 00:57:48;;;;;;;11.02;8.65;;;11.20;42.50;;;;;;5094394;28;20482;-73
2022/04/18 01:00:14;;;;;;;11.98;8.50;;;11.20;42.40;;;;;;5107639;28;20043;-74
2022/04/18 01:02:40;;;;;;;13.55;8.85;;;11.20;42.50;;;;;;5091793;28;20080;-74
2022/04/18 01:05:06;;;;;;;13.02;9.38;;;11.10;42.60;;;;;;5091850;28;20043;-74
2022/04/18 01:07:33;;;;;;;13.80;9.93;;;11.10;42.70;;;;;;5089096;28;20051;-73
2022/04/18 01:09:59;;;;;;;14.05;9.93;;;11.10;42.70;;;;;;5106703;28;20031;-74
2022/04/18 01:12:25;;;;;;;11.57;8.65;;;11.00;42.90;;;;;;5114050;27;20489;-73
2022/04/18 01:14:50;;;;;;;14.15;9.35;;;11.10;42.90;;;;;;5092725;28;20042;-71
2022/04/18 01:17:16;;;;;;;12.70;8.95;;;11.10;42.80;;;;;;5107088;28;20015;-71
2022/04/18 01:19:42;;;;;;;10.27;7.85;;;11.10;42.60;;;;;;5114603;27;20031;-72
2022/04/18 01:22:12;;;;;;;12.02;8.18;;;11.10;42.70;;;;;;5121193;27;20019;-72
2022/04/18 01:30:07;;;;;;;11.93;8.70;;;11.00;43.00;;;;;;5121942;27;20119;-75
2022/04/18 01:32:33;;;;;;;11.75;8.93;;;11.00;43.10;;;;;;5116811;27;20103;-73
2022/04/18 01:34:59;;;;;;;11.00;8.93;;;10.90;43.00;;;;;;5101972;28;20023;-73
2022/04/18 01:37:24;;;;;;;10.93;7.93;;;10.90;43.20;;;;;;5099846;28;20527;-71
2022/04/18 01:39:50;;;;;;;11.80;8.77;;;10.90;43.10;;;;;;5090851;28;20020;-71
2022/04/18 01:42:16;;;;;;;11.70;8.38;;;10.90;43.20;;;;;;5107852;28;20031;-71
2022/04/18 01:44:42;;;;;;;11.63;7.97;;;10.90;43.20;;;;;;5105327;27;20040;-73
2022/04/18 01:47:08;;;;;;;11.90;8.88;;;10.90;43.10;;;;;;5108329;27;20038;-72
2022/04/18 01:49:33;;;;;;;11.60;8.95;;;10.80;43.10;;;;;;5110121;28;20027;-73
2022/04/18 01:51:59;;;;;;;10.15;7.75;;;10.80;43.20;;;;;;5113353;27;20489;-73
2022/04/18 01:54:25;;;;;;;11.38;7.78;;;10.80;43.10;;;;;;5116647;27;20031;-72
2022/04/18 01:56:50;;;;;;;9.45;7.50;;;10.80;43.00;;;;;;5102409;28;20789;-74
2022/04/18 01:59:16;;;;;;;12.10;8.15;;;10.80;43.70;;;;;;5121594;27;20023;-74
2022/04/18 02:01:41;;;;;;;12.77;8.00;;;10.80;43.00;;;;;;5111952;27;20032;-73
2022/04/18 02:04:07;;;;;;;11.65;7.57;;;10.80;43.20;;;;;;5101418;28;20027;-73
2022/04/18 02:06:33;;;;;;;9.90;7.43;;;10.80;43.20;;;;;;5104758;28;20028;-72
2022/04/18 02:08:59;;;;;;;11.07;7.85;;;10.80;43.20;;;;;;5112393;28;20036;-70
2022/04/18 02:11:25;;;;;;;13.10;9.00;;;10.70;43.20;;;;;;5105511;28;20034;-71
2022/04/18 02:13:52;;;;;;;9.88;7.57;;;10.70;43.40;;;;;;5102215;28;20094;-70
2022/04/18 02:16:17;;;;;;;10.13;8.15;;;10.70;43.40;;;;;;5106189;28;20087;-71
2022/04/18 02:18:43;;;;;;;11.57;8.38;;;10.70;43.40;;;;;;5097120;28;20123;-71
2022/04/18 02:21:11;;;;;;;11.57;8.07;;;10.60;43.40;;;;;;5097511;28;20073;-71
2022/04/18 02:23:40;;;;;;;9.32;6.97;;;10.60;43.40;;;;;;5108992;28;20030;-72
2022/04/18 02:26:06;;;;;;;9.15;6.85;;;10.60;43.30;;;;;;5114429;27;20024;-72
2022/04/18 02:28:32;;;;;;;10.48;7.20;;;10.60;43.20;;;;;;5119800;27;20084;-72
2022/04/18 02:30:58;;;;;;;10.85;7.72;;;10.60;43.20;;;;;;5096599;27;20027;-71
2022/04/18 02:33:24;;;;;;;10.70;7.78;;;10.60;43.30;;;;;;5105824;28;20040;-71
2022/04/18 02:35:49;;;;;;;11.65;7.78;;;10.50;43.30;;;;;;5111513;28;20047;-72
2022/04/18 02:38:16;;;;;;;12.25;7.97;;;10.50;43.30;;;;;;5115488;27;21022;-72
2022/04/18 02:40:42;;;;;;;11.43;8.02;;;10.50;43.50;;;;;;5103205;28;20055;-71
2022/04/18 02:43:09;;;;;;;9.55;6.90;;;10.50;43.50;;;;;;5111274;28;20070;-72
2022/04/18 02:45:34;;;;;;;10.65;7.70;;;10.50;43.50;;;;;;5113078;28;20031;-71
2022/04/18 02:48:00;;;;;;;9.00;6.85;;;10.50;43.50;;;;;;5108685;28;20390;-71
2022/04/18 02:50:26;;;;;;;10.20;7.28;;;10.50;43.40;;;;;;5105005;28;20470;-69
2022/04/18 02:52:52;;;;;;;11.02;8.10;;;10.40;43.40;;;;;;5121810;27;20027;-69
2022/04/18 02:55:17;;;;;;;10.23;6.88;;;10.40;43.40;;;;;;5123808;27;20023;-68
2022/04/18 02:57:43;;;;;;;11.75;7.82;;;10.40;44.10;;;;;;5113522;28;20025;-70
2022/04/18 03:00:11;;;;;;;11.00;7.93;;;10.40;43.60;;;;;;5110837;28;20104;-68
2022/04/18 03:02:38;;;;;;;11.48;7.38;;;10.30;43.50;;;;;;5108561;28;20031;-67
2022/04/18 03:05:05;;;;;;;11.02;8.13;;;10.40;43.60;;;;;;5112023;28;20160;-70
2022/04/18 03:07:31;;;;;;;12.15;7.75;;;10.30;43.60;;;;;;5110676;27;20023;-73
2022/04/18 03:09:57;;;;;;;13.65;8.80;;;10.30;43.60;;;;;;5090002;28;20103;-73
2022/04/18 03:12:23;;;;;;;12.02;8.68;;;10.30;43.60;;;;;;5103248;28;20115;-72
2022/04/18 03:14:49;;;;;;;11.00;7.70;;;10.30;43.80;;;;;;5111309;28;20035;-72
2022/04/18 03:17:15;;;;;;;12.75;8.43;;;10.20;43.70;;;;;;5109751;27;20020;-72
2022/04/18 03:19:40;;;;;;;11.45;6.65;;;10.20;44.50;;;;;;5117512;27;20049;-71
2022/04/18 03:22:06;;;;;;;11.40;6.75;;;10.20;43.80;;;;;;5091728;28;20016;-72
2022/04/18 03:24:33;;;;;;;9.35;6.50;;;10.20;43.70;;;;;;5105647;28;20028;-72
2022/04/18 03:26:59;;;;;;;8.52;6.82;;;10.20;43.70;;;;;;5110995;28;20016;-74
2022/04/18 03:29:25;;;;;;;9.50;6.72;;;10.30;43.80;;;;;;5110264;28;20019;-74
2022/04/18 03:31:51;;;;;;;8.98;6.00;;;10.20;43.80;;;;;;5116133;27;20076;-74
2022/04/18 03:34:16;;;;;;;8.55;6.03;;;10.20;43.90;;;;;;5098339;27;20094;-73
2022/04/18 03:42:10;;;;;;;9.25;6.30;;;10.10;44.10;;;;;;5112704;28;20084;-74
2022/04/18 03:44:42;;;;;;;8.07;6.15;;;10.10;44.10;;;;;;5101885;27;20023;-72
2022/04/18 03:47:09;;;;;;;8.18;6.10;;;10.10;44.10;;;;;;5107076;28;20031;-74
2022/04/18 03:49:35;;;;;;;8.70;6.15;;;10.10;44.00;;;;;;5088280;28;20028;-74
2022/04/18 03:52:00;;;;;;;8.30;6.63;;;10.10;44.00;;;;;;5103102;28;20050;-73
2022/04/18 03:54:26;;;;;;;9.40;6.40;;;10.10;44.00;;;;;;5108350;28;20016;-73
2022/04/18 03:56:51;;;;;;;9.15;5.97;;;10.10;44.10;;;;;;5097910;27;20020;-74
2022/04/18 03:59:17;;;;;;;8.70;5.90;;;10.10;44.10;;;;;;5118382;27;20504;-74
2022/04/18 04:01:42;;;;;;;11.02;6.88;;;10.00;44.10;;;;;;5087378;28;20034;-72
2022/04/18 04:04:08;;;;;;;9.18;7.00;;;10.00;44.90;;;;;;5128212;27;20518;-71
2022/04/18 04:06:34;;;;;;;10.98;7.75;;;10.00;44.40;;;;;;5105794;28;20031;-72
2022/04/18 04:08:59;;;;;;;9.65;7.30;;;9.80;44.50;;;;;;5110303;28;20482;-72
2022/04/18 04:11:25;;;;;;;9.02;6.20;;;9.80;44.60;;;;;;5109045;28;20076;-72
2022/04/18 04:13:51;;;;;;;9.95;7.75;;;9.80;44.60;;;;;;5106599;27;20730;-68
2022/04/18 04:16:18;;;;;;;11.32;8.20;;;9.80;44.70;;;;;;5114167;27;20024;-70
2022/04/18 04:18:44;;;;;;;9.70;7.38;;;9.70;44.80;;;;;;5104428;28;20091;-69
2022/04/18 04:21:09;;;;;;;10.88;7.72;;;9.70;44.80;;;;;;5102746;28;20032;-71
2022/04/18 04:23:35;;;;;;;8.93;6.78;;;9.70;44.90;;;;;;5120559;27;20074;-70
2022/04/18 04:26:00;;;;;;;10.10;6.85;;;9.70;44.80;;;;;;5105220;28;20020;-70
2022/04/18 04:28:26;;;;;;;10.48;7.90;;;9.70;44.80;;;;;;5122739;27;20030;-70
2022/04/18 04:30:51;;;;;;;9.80;7.43;;;9.70;45.00;;;;;;5102439;28;20077;-69
2022/04/18 04:33:17;;;;;;;12.00;7.90;;;9.60;45.00;;;;;;5110197;28;20023;-70
2022/04/18 04:35:42;;;;;;;10.75;7.28;;;9.60;45.10;;;;;;5107526;27;20061;-71
2022/04/18 04:38:08;;;;;;;9.90;7.43;;;9.60;45.80;;;;;;5106182;28;20015;-72
2022/04/18 04:40:33;;;;;;;9.25;6.68;;;9.60;45.10;;;;;;5102921;28;20062;-72
2022/04/18 04:42:59;;;;;;;9.40;7.03;;;9.60;45.00;;;;;;5095324;28;20032;-72
2022/04/18 04:45:24;;;;;;;10.07;7.00;;;9.60;45.10;;;;;;5097150;28;20032;-73
2022/04/18 04:47:50;;;;;;;9.43;6.93;;;9.60;45.10;;;;;;5104246;28;20099;-74
2022/04/18 04:50:16;;;;;;;11.38;7.60;;;9.60;45.20;;;;;;5114851;27;20047;-74
2022/04/18 04:52:41;;;;;;;9.88;6.78;;;9.60;45.20;;;;;;5099646;28;20087;-72
2022/04/18 04:55:08;;;;;;;7.57;5.60;;;9.60;45.10;;;;;;5123164;27;20032;-73
2022/04/18 04:57:34;;;;;;;10.38;7.15;;;9.60;45.60;;;;;;5104563;28;20051;-71
2022/04/18 05:00:00;;;;;;;9.85;6.80;;;9.70;45.10;;;;;;5107508;28;20511;-73
2022/04/18 05:02:25;;;;;;;10.88;7.68;;;9.70;45.10;;;;;;5106781;28;20110;-73
2022/04/18 05:04:51;;;;;;;11.95;7.53;;;9.60;45.10;;;;;;5104670;27;20115;-75
2022/04/18 05:07:17;;;;;;;9.98;7.57;;;9.60;45.10;;;;;;5110392;27;20538;-72
2022/04/18 05:09:42;;;;;;;9.35;6.53;;;9.60;45.10;;;;;;5103882;28;20078;-74
2022/04/18 05:12:08;;;;;;;11.68;6.88;;;9.70;45.10;;;;;;5102221;28;20024;-75
2022/04/18 05:14:34;;;;;;;10.00;6.10;;;9.70;45.10;;;;;;5110341;28;20106;-74
2022/04/18 05:17:01;;;;;;;10.05;7.15;;;9.70;45.10;;;;;;5105999;28;20099;-73
2022/04/18 05:19:27;;;;;;;8.73;6.05;;;9.70;45.10;;;;;;5114277;27;20024;-74
2022/04/18 05:21:52;;;;;;;10.93;7.95;;;9.80;45.10;;;;;;5101927;27;20032;-73
2022/04/18 05:24:18;;;;;;;9.18;6.25;;;9.70;45.10;;;;;;5117301;27;20024;-73
2022/04/18 05:26:46;;;;;;;10.85;7.57;;;9.80;45.10;;;;;;5094336;28;20032;-73
2022/04/18 05:29:12;;;;;;;8.57;6.53;;;9.80;45.10;;;;;;5088820;28;20359;-74
2022/04/18 05:31:37;;;;;;;9.15;6.35;;;10.70;44.70;;;;;;5089754;28;20016;-73
2022/04/18 05:34:03;;;;;;;8.73;6.25;;;12.00;42.60;;;;;;5103898;28;20027;-73
2022/04/18 05:36:29;;;;;;;9.80;7.25;;;13.10;40.60;;;;;;5093649;28;20024;-72
2022/04/18 05:38:55;;;;;;;10.40;7.00;;;14.10;38.80;;;;;;5093468;28;20031;-74
2022/04/18 05:41:20;;;;;;;9.80;6.78;;;15.00;37.50;;;;;;5081357;28;20797;-74
2022/04/18 05:43:49;;;;;;;10.98;7.88;;;15.80;36.20;;;;;;5129409;27;20396;-74
2022/04/18 05:46:15;;;;;;;9.15;6.53;;;16.50;34.90;;;;;;5123368;27;20470;-74
2022/04/18 05:48:42;;;;;;;10.15;6.88;;;16.60;34.40;;;;;;5105763;28;20024;-73
2022/04/18 05:51:08;;;;;;;9.50;6.75;;;16.20;34.60;;;;;;5095759;27;20027;-73
2022/04/18 05:53:34;;;;;;;7.78;5.78;;;15.70;35.20;;;;;;5114470;27;20072;-75
2022/04/18 05:55:59;;;;;;;9.55;6.90;;;15.30;35.80;;;;;;5099451;28;20019;-74
2022/04/18 05:58:26;;;;;;;9.25;7.10;;;14.70;36.50;;;;;;5110237;27;20100;-73
2022/04/18 06:00:52;;;;;;;8.63;6.28;;;14.50;36.90;;;;;;5112050;28;20063;-74
2022/04/18 06:03:17;;;;;;;9.70;6.55;;;14.70;37.20;;;;;;5093147;28;20047;-75
2022/04/18 06:05:43;;;;;;;9.38;6.47;;;15.80;36.10;;;;;;5122851;27;20027;-75
2022/04/18 06:08:08;;;;;;;6.57;5.32;;;16.90;34.60;;;;;;5104731;28;20057;-70
2022/04/18 06:10:40;;;;;;;7.75;6.20;;;17.90;33.40;;;;;;5126804;27;20055;-72
2022/04/18 06:13:07;;;;;;;7.13;5.57;;;18.80;32.30;;;;;;5085118;28;20031;-73
2022/04/18 06:15:33;;;;;;;8.15;5.90;;;19.60;31.20;;;;;;5087012;28;20368;-73
2022/04/18 06:17:58;;;;;;;7.85;5.35;;;20.30;30.20;;;;;;5101847;28;20501;-74
2022/04/18 06:20:24;;;;;;;7.15;5.75;;;21.00;29.70;;;;;;5090059;28;20020;-73
2022/04/18 06:22:49;;;;;;;6.72;4.97;;;21.40;29.40;;;;;;5110718;28;20102;-73
2022/04/18 06:25:15;;;;;;;7.90;5.30;;;22.00;28.70;;;;;;5105723;28;20073;-72
2022/04/18 06:27:40;;;;;;;7.55;5.30;;;22.00;27.90;;;;;;5114170;28;20058;-73
2022/04/18 06:30:06;;;;;;;6.43;4.53;;;22.30;27.80;;;;;;5101112;28;20504;-74
2022/04/18 06:32:36;;;;;;;5.65;4.10;;;22.50;27.60;;;;;;5107580;28;20102;-72
2022/04/18 06:35:01;;;;;;;7.80;5.28;;;23.00;27.30;;;;;;5110079;28;20168;-72
2022/04/18 06:37:26;;;;;;;7.38;5.07;;;23.00;26.70;;;;;;5106880;28;20094;-72
2022/04/18 06:39:52;;;;;;;6.40;4.28;;;23.40;26.50;;;;;;5126536;28;20031;-73
2022/04/18 06:42:17;;;;;;;6.18;4.90;;;23.80;26.40;;;;;;5109597;28;20036;-73
2022/04/18 06:44:43;;;;;;;5.15;4.10;;;23.80;25.90;;;;;;5107330;28;20068;-73
2022/04/18 06:47:09;;;;;;;5.03;3.83;;;23.50;25.90;;;;;;5124274;28;20035;-73
2022/04/18 06:49:34;;;;;;;5.28;3.83;;;23.60;26.00;;;;;;5109521;28;20385;-73
2022/04/18 06:51:59;;;;;;;7.03;4.97;;;24.00;26.10;;;;;;5098993;28;20035;-73
2022/04/18 06:54:25;;;;;;;7.07;4.88;;;24.00;25.90;;;;;;5103579;28;20431;-74
2022/04/18 06:57:00;;;;;;;6.32;4.22;;;24.30;25.70;;;;;;5095487;28;20024;-74
2022/04/18 06:59:27;;;;;;;6.90;4.32;;;24.30;25.60;;;;;;5096337;28;20556;-75
2022/04/18 07:01:57;;;;;;;6.20;4.50;;;24.10;25.40;;;;;;5104282;28;20031;-73
2022/04/18 07:04:23;;;;;;;4.85;3.58;;;24.40;25.50;;;;;;5082757;28;20020;-74
2022/04/18 07:06:49;;;;;;;4.60;3.47;;;24.70;25.40;;;;;;5103295;28;20414;-73
2022/04/18 07:09:14;;;;;;;6.47;4.10;;;25.00;25.40;;;;;;5103288;28;20020;-74
2022/04/18 07:11:42;;;;;;;5.28;3.80;;;25.30;25.30;;;;;;5099283;28;20027;-74
2022/04/18 07:14:08;;;;;;;5.82;4.20;;;25.20;25.10;;;;;;5115589;27;20398;-72
2022/04/18 07:16:33;;;;;;;6.40;3.83;;;25.10;25.00;;;;;;5110569;27;20028;-74
2022/04/18 07:18:59;;;;;;;7.30;5.35;;;25.60;25.10;;;;;;5106550;27;20027;-74
2022/04/18 07:21:25;;;;;;;6.70;5.00;;;25.20;24.40;;;;;;5108641;27;20023;-73
2022/04/18 07:23:52;;;;;;;5.95;4.55;;;24.60;24.80;;;;;;5110084;28;20040;-72
2022/04/18 07:26:19;;;;;;;6.43;4.80;;;24.50;25.10;;;;;;5106883;28;20505;-73
2022/04/18 07:28:45;;;;;;;7.05;4.90;;;24.50;25.50;;;;;;5108726;27;20035;-72
2022/04/18 07:31:10;;;;;;;6.93;4.53;;;24.60;25.20;;;;;;5111450;27;20959;-73
2022/04/18 07:33:36;;;;;;;6.28;4.18;;;24.40;25.20;;;;;;5112889;27;20024;-72
2022/04/18 07:36:03;;;;;;;5.60;4.47;;;24.60;25.60;;;;;;5112560;27;20439;-71
2022/04/18 07:41:14;;;;;;;6.80;5.00;;;25.70;25.20;;;;;;5111899;27;20039;-70
2022/04/18 07:43:40;;;;;;;7.40;5.47;;;25.10;25.30;;;;;;5108338;27;20033;-71
2022/04/18 07:46:06;;;;;;;7.35;5.22;;;24.60;25.40;;;;;;5113815;27;20028;-71
2022/04/18 07:48:32;;;;;;;6.45;4.95;;;24.50;26.00;;;;;;5120985;27;20295;-72
2022/04/18 07:53:42;;;;;;;7.45;5.32;;;24.50;25.90;;;;;;5112607;27;20085;-72
2022/04/18 07:56:07;;;;;;;8.20;4.70;;;24.20;26.00;;;;;;5113992;27;20043;-72
2022/04/18 07:58:33;;;;;;;6.43;4.95;;;24.30;26.30;;;;;;5112339;27;20036;-72
2022/04/18 08:00:58;;;;;;;6.20;4.60;;;24.10;26.50;;;;;;5105336;28;20035;-72
2022/04/18 08:03:24;;;;;;;7.32;5.10;;;24.50;26.40;;;;;;5107332;28;20058;-72
2022/04/18 08:05:50;;;;;;;7.20;4.38;;;24.60;26.10;;;;;;5095148;28;20023;-73
2022/04/18 08:08:15;;;;;;;5.13;3.60;;;24.80;26.20;;;;;;5094204;27;20070;-72
2022/04/18 08:10:41;;;;;;;4.43;2.95;;;25.00;25.90;;;;;;5116998;27;20493;-71
2022/04/18 08:13:06;;;;;;;5.38;4.07;;;25.30;25.90;;;;;;5105322;27;20015;-72
2022/04/18 08:15:33;;;;;;;7.55;3.70;;;25.20;26.00;;;;;;5118372;27;20031;-71
2022/04/18 08:17:58;;;;;;;4.85;3.38;;;25.50;26.00;;;;;;5118497;27;20505;-72
2022/04/18 08:20:25;;;;;;;3.97;2.88;;;25.50;25.60;;;;;;5119011;27;20103;-72
2022/04/18 08:22:50;;;;;;;5.07;3.05;;;25.70;25.60;;;;;;5108447;28;20020;-72
2022/04/18 08:25:16;;;;;;;3.80;3.05;;;25.70;25.50;;;;;;5114354;27;20519;-71
2022/04/18 08:27:41;;;;;;;4.35;3.30;;;24.90;25.80;;;;;;5096869;28;20023;-73
2022/04/18 08:30:07;;;;;;;3.63;2.75;;;24.40;26.40;;;;;;5088538;27;20126;-72
2022/04/18 08:32:36;;;;;;;3.35;2.75;;;24.20;26.90;;;;;;5089750;27;20023;-72
2022/04/18 08:35:03;;;;;;;3.90;2.63;;;24.00;27.40;;;;;;5108441;27;20023;-71
2022/04/18 08:37:28;;;;;;;4.50;2.85;;;24.00;27.50;;;;;;5112373;27;20031;-71
2022/04/18 08:39:54;;;;;;;4.28;3.28;;;23.60;27.70;;;;;;5111761;27;20363;-72
2022/04/18 08:42:21;;;;;;;6.10;3.42;;;22.90;28.20;;;;;;5121006;27;20569;-71
2022/04/18 08:44:51;;;;;;;4.07;2.83;;;22.50;28.50;;;;;;5111727;27;20024;-72
2022/04/18 08:52:50;;;;;;;4.18;3.08;;;20.60;29.90;;;;;;5109380;27;20034;-73
2022/04/18 08:55:16;;;;;;;4.05;2.33;;;20.00;30.60;;;;;;5091371;28;20028;-72
2022/04/18 08:57:42;;;;;;;4.70;3.17;;;19.70;31.10;;;;;;5110729;27;20023;-73
2022/04/18 09:00:09;;;;;;;3.35;2.60;;;19.20;31.40;;;;;;5092201;28;20024;-73
2022/04/18 09:02:35;;;;;;;3.67;2.80;;;18.80;31.70;;;;;;5107858;27;20031;-72
2022/04/18 09:05:00;;;;;;;4.40;2.75;;;18.60;31.70;;;;;;5116531;27;20512;-73
2022/04/18 09:07:26;;;;;;;3.83;2.40;;;18.40;32.10;;;;;;5109161;27;20565;-72
2022/04/18 09:09:58;;;;;;;3.35;2.88;;;18.40;32.30;;;;;;5116720;27;20031;-72
2022/04/18 09:12:27;;;;;;;4.25;2.80;;;18.40;32.10;;;;;;5107067;27;20100;-72
2022/04/18 09:14:52;;;;;;;3.72;2.40;;;18.40;32.40;;;;;;5090143;27;20026;-72
2022/04/18 09:17:31;;;;;;;4.38;3.00;;;18.50;32.50;;;;;;5110708;28;20020;-72
2022/04/18 09:20:23;;;;;;;3.38;2.80;;;18.40;32.20;;;;;;5108688;27;20027;-72
2022/04/18 09:22:49;;;;;;;3.30;2.10;;;18.40;32.60;;;;;;5100387;28;20040;-72
2022/04/18 09:25:17;;;;;;;4.25;2.88;;;18.50;32.70;;;;;;5089933;28;20515;-72
2022/04/18 09:27:58;;;;;;;3.47;2.50;;;18.70;32.30;;;;;;5103324;28;20515;-73
2022/04/18 09:30:25;;;;;;;3.75;3.00;;;18.70;32.50;;;;;;5083286;28;20030;-72
2022/04/18 09:33:03;;;;;;;2.92;2.20;;;18.50;32.50;;;;;;5083982;28;20020;-73
2022/04/18 09:35:30;;;;;;;5.28;2.75;;;18.60;32.60;;;;;;5108403;27;20377;-72
2022/04/18 09:38:04;;;;;;;3.60;2.60;;;18.60;32.50;;;;;;5105445;27;20035;-72
2022/04/18 09:40:33;;;;;;;4.15;2.90;;;18.70;32.60;;;;;;5109361;28;20027;-72
2022/04/18 09:42:59;;;;;;;2.83;2.20;;;18.80;32.80;;;;;;5097214;28;20035;-73
2022/04/18 09:45:25;;;;;;;2.83;2.35;;;18.90;32.80;;;;;;5085163;28;20032;-73
2022/04/18 09:48:02;;;;;;;3.25;2.78;;;19.10;32.50;;;;;;5087035;28;20516;-74
2022/04/18 09:53:26;;;;;;;3.75;2.60;;;18.90;30.60;;;;;;5107498;28;20079;-72
2022/04/18 09:55:53;;;;;;;3.85;2.30;;;18.90;31.50;;;;;;5102016;28;20552;-72
2022/04/18 09:58:19;;;;;;;3.70;3.00;;;18.90;31.60;;;;;;5105171;28;20030;-71
2022/04/18 10:00:46;;;;;;;4.22;3.00;;;19.00;31.60;;;;;;5102511;28;20047;-71
2022/04/18 10:03:12;;;;;;;2.92;2.38;;;19.10;31.20;;;;;;5087026;28;20470;-72
2022/04/18 10:05:39;;;;;;;2.80;2.25;;;19.10;31.40;;;;;;5102304;28;20027;-72
2022/04/18 10:08:05;;;;;;;3.55;2.58;;;19.20;31.40;;;;;;5097706;28;20037;-73
2022/04/18 10:10:41;;;;;;;2.90;2.15;;;19.30;31.40;;;;;;5101030;28;20136;-73
2022/04/18 10:13:08;;;;;;;2.85;2.35;;;19.50;31.70;;;;;;5090311;28;20034;-72
2022/04/18 10:15:39;;;;;;;3.80;2.10;;;19.60;30.50;;;;;;5109501;28;20386;-74
2022/04/18 10:18:07;;;;;;;2.60;2.40;;;19.70;30.50;;;;;;5105592;28;20019;-73
2022/04/18 10:20:56;;;;;;;3.63;2.60;;;19.80;30.00;;;;;;5094804;28;20023;-71
2022/04/18 10:23:38;;;;;;;2.90;2.20;;;19.70;30.00;;;;;;5098846;28;20035;-73
2022/04/18 10:26:20;;;;;;;;;;;19.90;30.30;;;;;;5107939;28;20104;-71
2022/04/18 10:28:48;;;;;;;3.40;2.63;;;20.00;30.20;;;;;;5106858;28;19916;-73
2022/04/18 10:31:19;;;;;;;2.55;2.13;;;20.00;30.00;;;;;;5107134;28;20103;-73
2022/04/18 10:33:45;;;;;;;3.23;2.60;;;20.10;30.00;;;;;;5106395;28;20449;-72
2022/04/18 10:36:12;;;;;;;3.63;2.60;;;19.80;29.40;;;;;;5096591;28;20048;-71
2022/04/18 10:38:41;;;;;;;2.83;2.22;;;19.70;29.30;;;;;;5067901;28;20020;-72
2022/04/18 10:41:37;;;;;;;2.67;2.30;;;19.70;29.60;;;;;;5077171;28;20474;-72
2022/04/18 10:44:08;;;;;;;3.55;2.38;;;19.70;29.30;;;;;;5081391;28;20040;-72
2022/04/18 10:46:38;;;;;;;5.38;2.60;;;19.80;29.40;;;;;;5095946;28;20027;-73
2022/04/18 10:49:12;;;;;;;2.42;2.22;;;19.90;29.00;;;;;;5100393;27;20077;-72
2022/04/18 10:51:39;;;;;;;3.30;2.13;;;19.90;29.20;;;;;;5101221;28;20485;-72
2022/04/18 10:54:07;;;;;;;2.60;2.25;;;20.10;29.40;;;;;;5105510;28;20482;-74
2022/04/18 10:56:51;;;;;;;2.53;1.95;;;20.20;29.20;;;;;;5118539;27;20413;-71
2022/04/18 10:59:27;;;;;;;2.63;2.28;;;20.40;29.10;;;;;;5114286;27;20036;-74
2022/04/18 11:01:54;;;;;;;2.20;1.85;;;20.50;28.80;;;;;;5104900;27;20048;-74
2022/04/18 11:04:35;;;;;;;3.22;2.30;;;20.50;28.50;;;;;;5115683;27;20031;-72
2022/04/18 11:07:06;;;;;;;3.08;2.30;;;20.50;28.30;;;;;;5113634;27;20031;-74
2022/04/18 11:09:36;;;;;;;2.40;2.10;;;20.30;27.80;;;;;;5107621;28;20016;-72
2022/04/18 11:12:10;;;;;;;4.40;2.03;;;20.20;28.00;;;;;;5110106;28;20019;-72
2022/04/18 11:14:38;;;;;;;2.63;2.03;;;20.30;27.90;;;;;;5129664;27;20036;-75
2022/04/18 11:17:06;;;;;;;2.55;2.03;;;20.30;25.70;;;;;;5109585;28;20039;-73
2022/04/18 11:19:36;;;;;;;2.75;1.70;;;20.10;26.10;;;;;;5107292;27;20366;-72
2022/04/18 11:22:01;;;;;;;2.13;1.60;;;20.20;26.00;;;;;;5114806;27;20022;-72
2022/04/18 11:24:41;;;;;;;2.70;1.88;;;20.20;26.30;;;;;;5104175;27;20380;-74
2022/04/18 11:27:15;;;;;;;3.55;2.00;;;20.40;26.60;;;;;;5121058;27;20071;-72
2022/04/18 11:29:44;;;;;;;5.68;3.55;;;20.50;26.50;;;;;;5108587;27;20026;-73
2022/04/18 11:32:15;;;;;;;3.60;2.75;;;20.60;26.70;;;;;;5106794;27;20098;-73
2022/04/18 11:34:47;;;;;;;3.22;2.33;;;20.70;26.50;;;;;;5108325;28;20100;-72
2022/04/18 11:37:31;;;;;;;3.65;2.60;;;20.70;26.60;;;;;;5104574;28;20102;-72
2022/04/18 11:39:59;;;;;;;3.30;2.50;;;20.60;26.80;;;;;;5115749;27;20043;-72
2022/04/18 11:42:28;;;;;;;4.03;2.67;;;20.40;27.30;;;;;;5130490;27;20007;-72
2022/04/18 11:44:55;;;;;;;3.03;2.50;;;20.50;26.90;;;;;;5113627;28;20048;-72
2022/04/18 11:47:28;;;;;;;3.22;2.50;;;20.40;26.80;;;;;;5120467;28;20031;-72
2022/04/18 11:50:01;;;;;;;3.05;2.10;;;20.40;27.30;;;;;;5118901;27;20027;-72
2022/04/18 11:52:37;;;;;;;3.05;2.40;;;20.70;27.50;;;;;;5113846;27;20023;-72
2022/04/18 11:55:13;;;;;;;3.95;2.83;;;20.80;27.50;;;;;;5110079;27;20408;-72
2022/04/18 11:57:44;;;;;;;3.88;3.22;;;20.80;27.10;;;;;;5105651;27;20028;-72
2022/04/18 12:08:32;;;;;;;4.57;3.50;;;20.70;27.80;;;;;;5102454;28;20080;-73
2022/04/18 12:10:58;;;;;;;3.60;2.78;;;20.90;28.00;;;;;;5106612;28;20020;-73
2022/04/18 12:13:23;;;;;;;3.03;2.38;;;21.00;28.00;;;;;;5109344;28;20016;-74
2022/04/18 12:15:49;;;;;;;3.35;2.70;;;21.20;28.00;;;;;;5098058;28;20501;-72
2022/04/18 12:18:17;;;;;;;3.08;2.42;;;21.50;27.90;;;;;;5112770;27;20027;-72
2022/04/18 12:20:44;;;;;;;3.35;2.30;;;21.60;27.60;;;;;;5115850;27;20020;-73
2022/04/18 12:23:21;;;;;;;3.72;2.90;;;21.70;27.50;;;;;;5104111;27;20039;-73
2022/04/18 12:25:50;;;;;;;4.00;3.20;;;21.50;27.20;;;;;;5111743;28;20024;-72
2022/04/18 12:28:18;;;;;;;4.00;3.30;;;21.50;27.40;;;;;;5106674;27;20095;-73
2022/04/18 12:30:44;;;;;;;5.68;3.38;;;21.60;27.40;;;;;;5094250;28;20031;-77
2022/04/18 12:33:19;;;;;;;4.07;2.30;;;21.50;27.40;;;;;;5104996;28;20019;-72
2022/04/18 12:35:51;;;;;;;3.30;2.78;;;21.70;27.50;;;;;;5111759;28;20054;-73
2022/04/18 12:38:18;;;;;;;4.43;3.38;;;21.90;27.50;;;;;;5104046;28;20017;-74
2022/04/18 12:40:54;;;;;;;2.38;2.17;;;22.10;27.40;;;;;;5110059;28;20110;-73
2022/04/18 12:43:20;;;;;;;2.58;2.20;;;22.30;27.50;;;;;;5104336;28;20077;-73
2022/04/18 12:45:59;;;;;;;3.58;3.22;;;22.40;27.10;;;;;;5113797;27;20241;-73
2022/04/18 12:48:27;;;;;;;2.85;2.20;;;22.30;26.60;;;;;;5102050;28;20016;-73
2022/04/18 12:50:54;;;;;;;3.25;2.58;;;22.30;26.70;;;;;;5109780;28;20034;-75
2022/04/18 12:53:20;;;;;;;3.72;2.72;;;22.30;26.80;;;;;;5088342;28;20020;-73
2022/04/18 12:55:47;;;;;;;2.95;2.20;;;22.40;26.50;;;;;;5108136;28;20398;-70
2022/04/18 12:58:20;;;;;;;4.22;2.60;;;22.50;27.20;;;;;;5111476;27;20083;-73
2022/04/18 13:00:48;;;;;;;3.67;2.60;;;22.50;26.50;;;;;;5104503;27;20060;-71
2022/04/18 13:03:14;;;;;;;3.22;2.70;;;22.60;26.60;;;;;;5097863;27;20024;-71
2022/04/18 13:05:47;;;;;;;3.22;2.58;;;22.80;26.60;;;;;;5102243;28;20028;-68
2022/04/18 13:08:15;;;;;;;4.43;2.65;;;22.90;26.40;;;;;;5096902;28;20011;-71
2022/04/18 13:10:41;;;;;;;3.92;2.50;;;22.90;26.20;;;;;;5108811;27;20028;-70
2022/04/18 13:13:18;;;;;;;3.58;2.58;;;22.90;26.00;;;;;;5107917;27;20089;-73
2022/04/18 13:15:46;;;;;;;2.90;2.00;;;23.10;25.80;;;;;;5106838;28;20553;-72
2022/04/18 13:18:21;;;;;;;5.95;3.90;;;23.30;25.90;;;;;;5106829;28;20015;-72
2022/04/18 13:20:47;;;;;;;3.25;2.58;;;23.20;25.40;;;;;;5101294;27;20024;-72